createdAt,value
2023-11-15T00:00:00.306Z,984.38
2023-11-15T00:05:00.278Z,984.44
2023-11-15T00:10:00.229Z,984.43
2023-11-15T00:15:00.210Z,984.41
2023-11-15T00:20:00.134Z,984.38
2023-11-15T00:25:00.116Z,984.44
2023-11-15T00:30:00.345Z,984.55
2023-11-15T00:35:05.090Z,984.54
2023-11-15T00:40:00.125Z,984.65
2023-11-15T00:45:00.243Z,984.68
2023-11-15T00:50:00.195Z,984.79
2023-11-15T00:55:00.170Z,984.86
2023-11-15T01:00:00.268Z,984.91
2023-11-15T01:05:00.150Z,985.05
2023-11-15T01:10:00.207Z,985.12
2023-11-15T01:15:00.193Z,985.21
2023-11-15T01:20:00.260Z,985.4
2023-11-15T01:25:00.133Z,985.63
2023-11-15T01:30:00.302Z,985.6
2023-11-15T01:35:00.201Z,985.83
2023-11-15T01:40:00.221Z,985.89
2023-11-15T01:45:00.156Z,986.07
2023-11-15T01:50:00.225Z,986.18
2023-11-15T01:55:00.193Z,986.13
2023-11-15T02:00:00.186Z,986.33
2023-11-15T02:05:00.130Z,986.28
2023-11-15T02:10:00.291Z,986.4
2023-11-15T02:15:00.187Z,986.43
2023-11-15T02:20:00.108Z,986.56
2023-11-15T02:25:00.122Z,986.66
2023-11-15T02:30:00.260Z,986.68
2023-11-15T02:35:00.126Z,986.71
2023-11-15T02:40:00.268Z,986.83
2023-11-15T02:45:00.250Z,986.91
2023-11-15T02:50:00.267Z,987.13
2023-11-15T02:55:00.152Z,987.24
2023-11-15T03:00:00.304Z,987.31
2023-11-15T03:05:00.226Z,987.37
2023-11-15T03:10:00.249Z,987.51
2023-11-15T03:15:00.204Z,987.54
2023-11-15T03:20:00.199Z,987.75
2023-11-15T03:25:00.131Z,987.83
2023-11-15T03:30:00.265Z,987.81
2023-11-15T03:35:00.136Z,988.15
2023-11-15T03:40:00.164Z,988.31
2023-11-15T03:45:00.196Z,988.35
2023-11-15T03:50:00.256Z,988.53
2023-11-15T03:55:00.161Z,988.56
2023-11-15T04:00:00.732Z,988.62
2023-11-15T04:05:00.521Z,988.76
2023-11-15T04:10:00.241Z,988.82
2023-11-15T04:15:00.219Z,988.84
2023-11-15T04:20:00.175Z,988.84
2023-11-15T04:25:00.167Z,988.89
2023-11-15T04:30:00.308Z,988.12
2023-11-15T04:35:00.145Z,988.21
2023-11-15T04:40:01.145Z,988.26
2023-11-15T04:45:00.207Z,988.37
2023-11-15T04:50:00.206Z,988.34
2023-11-15T04:55:00.160Z,988.52
2023-11-15T05:00:00.381Z,988.52
2023-11-15T05:05:00.271Z,988.75
2023-11-15T05:10:00.236Z,988.79
2023-11-15T05:15:00.211Z,988.96
2023-11-15T05:20:00.167Z,988.94
2023-11-15T05:25:00.406Z,989.12
2023-11-15T05:30:00.285Z,989.17
2023-11-15T05:35:00.222Z,989.26
2023-11-15T05:40:00.144Z,989.37
2023-11-15T05:45:00.265Z,989.44
2023-11-15T05:50:00.287Z,989.6
2023-11-15T05:55:00.139Z,989.64
2023-11-15T06:00:00.292Z,989.88
2023-11-15T06:05:00.189Z,989.95
2023-11-15T06:10:00.200Z,989.98
2023-11-15T06:15:00.213Z,990.14
2023-11-15T06:20:04.253Z,990.21
2023-11-15T06:25:00.155Z,990.31
2023-11-15T06:30:00.433Z,990.41
2023-11-15T06:35:00.164Z,990.48
2023-11-15T06:40:00.195Z,990.56
2023-11-15T06:45:00.415Z,990.72
2023-11-15T06:50:02.083Z,990.84
2023-11-15T06:55:00.131Z,990.92
2023-11-15T07:00:00.272Z,991.05
2023-11-15T07:05:00.180Z,991.14
2023-11-15T07:10:00.244Z,991.26
2023-11-15T07:15:00.384Z,991.29
2023-11-15T07:20:00.189Z,991.44
2023-11-15T07:25:00.162Z,991.55
2023-11-15T07:30:00.274Z,991.52
2023-11-15T07:35:00.192Z,991.73
2023-11-15T07:40:00.145Z,991.92
2023-11-15T07:45:00.171Z,991.98
2023-11-15T07:50:00.225Z,992.07
2023-11-15T07:55:01.776Z,992.03
2023-11-15T08:00:00.360Z,992.13
2023-11-15T08:05:00.186Z,992.13
2023-11-15T08:10:00.225Z,992.17
2023-11-15T08:15:00.182Z,992.23
2023-11-15T08:20:00.216Z,992.26
2023-11-15T08:25:00.131Z,992.29
2023-11-15T08:30:00.228Z,992.32
2023-11-15T08:35:00.191Z,992.4
2023-11-15T08:40:00.602Z,992.44
2023-11-15T08:45:00.226Z,992.56
2023-11-15T08:50:00.235Z,992.63
2023-11-15T08:55:00.217Z,992.64
2023-11-15T09:00:00.600Z,992.71
2023-11-15T09:05:00.189Z,992.75
2023-11-15T09:10:00.196Z,992.82
2023-11-15T09:15:00.222Z,992.83
2023-11-15T09:20:00.282Z,992.99
2023-11-15T09:25:03.839Z,992.89
2023-11-15T09:30:00.372Z,993.12
2023-11-15T09:35:00.205Z,993.22
2023-11-15T09:40:00.190Z,993.16
2023-11-15T09:45:00.160Z,993.26
2023-11-15T09:50:00.280Z,993.2
2023-11-15T09:55:00.191Z,993.38
2023-11-15T10:00:05.158Z,993.56
2023-11-15T10:05:00.220Z,993.58
2023-11-15T10:10:00.244Z,993.59
2023-11-15T10:15:00.217Z,993.58
2023-11-15T10:20:00.219Z,993.58
2023-11-15T10:25:00.215Z,993.68
2023-11-15T10:30:00.421Z,993.73
2023-11-15T10:35:00.130Z,993.74
2023-11-15T10:40:00.206Z,993.73
2023-11-15T10:45:00.178Z,993.81
2023-11-15T10:50:00.294Z,993.7
2023-11-15T10:55:00.181Z,993.76
2023-11-15T11:00:00.358Z,993.87
2023-11-15T11:05:00.220Z,993.81
2023-11-15T11:10:00.297Z,993.83
2023-11-15T11:15:00.232Z,993.93
2023-11-15T11:20:00.212Z,994
2023-11-15T11:25:00.196Z,994.02
2023-11-15T11:30:00.359Z,994.06
2023-11-15T11:35:00.147Z,993.99
2023-11-15T11:40:00.150Z,993.88
2023-11-15T11:45:00.204Z,993.97
2023-11-15T11:50:00.257Z,994.01
2023-11-15T11:55:00.152Z,994.04
2023-11-15T12:00:00.402Z,994.08
2023-11-15T12:05:00.287Z,994.12
2023-11-15T12:10:00.259Z,994.03
2023-11-15T12:15:00.215Z,994.08
2023-11-15T12:20:00.225Z,994.11
2023-11-15T12:25:00.159Z,994.06
2023-11-15T12:30:00.352Z,994.13
2023-11-15T12:35:00.138Z,994.09
2023-11-15T12:40:00.216Z,994.08
2023-11-15T12:45:00.238Z,994.1
2023-11-15T12:50:00.246Z,994.16
2023-11-15T12:55:00.179Z,994.14
2023-11-15T13:00:00.259Z,994.2
2023-11-15T13:05:00.138Z,994.2
2023-11-15T13:10:00.249Z,994.27
2023-11-15T13:15:00.245Z,994.24
2023-11-15T13:20:02.343Z,994.18
2023-11-15T13:25:00.178Z,994.17
2023-11-15T13:30:00.391Z,994.23
2023-11-15T13:35:00.134Z,994.29
2023-11-15T13:40:00.220Z,994.29
2023-11-15T13:45:00.194Z,994.35
2023-11-15T13:50:00.192Z,994.45
2023-11-15T13:55:00.157Z,994.49
2023-11-15T14:00:00.337Z,994.57
2023-11-15T14:05:00.150Z,994.56
2023-11-15T14:10:00.261Z,994.68
2023-11-15T14:15:00.200Z,994.72
2023-11-15T14:20:00.183Z,994.72
2023-11-15T14:25:00.158Z,994.76
2023-11-15T14:30:00.292Z,994.8
2023-11-15T14:35:00.255Z,994.79
2023-11-15T14:40:00.192Z,994.88
2023-11-15T14:45:00.187Z,994.91
2023-11-15T14:50:00.216Z,995.04
2023-11-15T14:55:00.161Z,995.06
2023-11-15T15:00:00.321Z,995.11
2023-11-15T15:05:00.227Z,995.14
2023-11-15T15:10:01.192Z,995.25
2023-11-15T15:15:00.213Z,995.33
2023-11-15T15:20:00.228Z,995.43
2023-11-15T15:25:00.186Z,995.47
2023-11-15T15:30:00.334Z,995.46
2023-11-15T15:35:00.190Z,995.54
2023-11-15T15:40:00.140Z,995.57
2023-11-15T15:45:00.257Z,995.57
2023-11-15T15:50:00.318Z,995.65
2023-11-15T15:55:00.168Z,995.66
2023-11-15T16:00:00.287Z,995.77
2023-11-15T16:05:00.208Z,995.77
2023-11-15T16:10:00.318Z,995.7
2023-11-15T16:15:00.359Z,995.91
2023-11-15T16:20:00.277Z,995.9
2023-11-15T16:25:00.113Z,995.93
2023-11-15T16:30:00.268Z,995.98
2023-11-15T16:35:00.238Z,996.04
2023-11-15T16:40:00.246Z,996.06
2023-11-15T16:45:00.187Z,996.03
2023-11-15T16:50:00.290Z,996.09
2023-11-15T16:55:00.228Z,996.18
2023-11-15T17:00:00.711Z,996.23
2023-11-15T17:05:00.125Z,996.26
2023-11-15T17:10:00.292Z,996.35
2023-11-15T17:15:00.475Z,996.4
2023-11-15T17:20:00.273Z,996.46
2023-11-15T17:25:00.194Z,996.6
2023-11-15T17:30:00.273Z,996.65
2023-11-15T17:35:00.124Z,996.6
2023-11-15T17:40:00.168Z,996.73
2023-11-15T17:45:00.225Z,996.8
2023-11-15T17:50:00.304Z,996.77
2023-11-15T17:55:00.164Z,996.84
2023-11-15T18:00:00.347Z,996.8
2023-11-15T18:05:00.144Z,996.82
2023-11-15T18:10:00.293Z,996.83
2023-11-15T18:15:00.263Z,996.73
2023-11-15T18:20:00.167Z,996.77
2023-11-15T18:25:00.174Z,996.87
2023-11-15T18:30:00.281Z,996.74
2023-11-15T18:35:00.166Z,996.86
2023-11-15T18:40:00.173Z,996.92
2023-11-15T18:45:00.241Z,996.82
2023-11-15T18:50:00.250Z,996.84
2023-11-15T18:55:00.237Z,996.85
2023-11-15T19:00:00.276Z,996.88
2023-11-15T19:05:00.186Z,996.82
2023-11-15T19:10:00.280Z,996.89
2023-11-15T19:15:00.176Z,996.92
2023-11-15T19:20:00.144Z,997.02
2023-11-15T19:25:00.174Z,997.06
2023-11-15T19:30:00.347Z,997.06
2023-11-15T19:35:00.122Z,997.13
2023-11-15T19:40:01.494Z,997.09
2023-11-15T19:45:00.221Z,997.07
2023-11-15T19:50:00.271Z,997.17
2023-11-15T19:55:00.181Z,997.05
2023-11-15T20:00:00.399Z,997
2023-11-15T20:05:00.274Z,997.08
2023-11-15T20:10:00.208Z,997.07
2023-11-15T20:15:00.251Z,997.03
2023-11-15T20:20:00.174Z,997.12
2023-11-15T20:25:00.154Z,997.16
2023-11-15T20:30:00.225Z,997.18
2023-11-15T20:35:00.199Z,997.29
2023-11-15T20:40:00.205Z,997.31
2023-11-15T20:45:00.207Z,997.29
2023-11-15T20:50:00.238Z,997.24
2023-11-15T20:55:00.163Z,997.2
2023-11-15T21:00:00.538Z,997.18
2023-11-15T21:05:00.273Z,997.25
2023-11-15T21:10:00.209Z,997.33
2023-11-15T21:15:00.204Z,997.38
2023-11-15T21:20:00.181Z,997.29
2023-11-15T21:25:00.147Z,997.39
2023-11-15T21:30:00.452Z,998.02
2023-11-15T21:35:00.154Z,997.85
2023-11-15T21:40:00.239Z,997.82
2023-11-15T21:45:00.311Z,997.83
2023-11-15T21:50:00.294Z,997.84
2023-11-15T21:55:00.138Z,997.79
2023-11-15T22:00:00.359Z,997.77
2023-11-15T22:05:00.179Z,997.75
2023-11-15T22:10:00.207Z,997.63
2023-11-15T22:15:00.388Z,997.65
2023-11-15T22:20:00.151Z,997.66
2023-11-15T22:25:00.172Z,997.67
2023-11-15T22:30:00.355Z,997.79
2023-11-15T22:35:00.223Z,997.86
2023-11-15T22:40:00.190Z,997.75
2023-11-15T22:45:00.205Z,997.83
2023-11-15T22:50:00.262Z,997.9
2023-11-15T22:55:00.137Z,997.86
2023-11-15T23:00:00.381Z,997.89
2023-11-15T23:05:00.362Z,997.89
2023-11-15T23:10:00.198Z,997.81
2023-11-15T23:15:00.240Z,997.79
2023-11-15T23:20:00.153Z,997.81
2023-11-15T23:25:00.181Z,997.82
2023-11-15T23:30:00.390Z,997.82
2023-11-15T23:35:00.155Z,997.94
2023-11-15T23:40:00.144Z,997.89
2023-11-15T23:45:00.350Z,997.87
2023-11-15T23:50:00.258Z,997.93
2023-11-15T23:55:00.249Z,997.76
